sensor_id;sensor_type;location;lat;lon;timestamp;P1;durP1;ratioP1;P2;durP2;ratioP2
21014;SDS011;19207;-23.482;-46.500;2023-02-15T00:00:16;6.28;;;4.10;;
21014;SDS011;19207;-23.482;-46.500;2023-02-15T00:03:04;8.68;;;4.85;;
21014;SDS011;19207;-23.482;-46.500;2023-02-15T00:05:51;9.77;;;4.18;;
21014;SDS011;19207;-23.482;-46.500;2023-02-15T00:08:38;5.68;;;3.78;;
21014;SDS011;19207;-23.482;-46.500;2023-02-15T00:11:25;6.03;;;3.85;;
21014;SDS011;19207;-23.482;-46.500;2023-02-15T00:14:30;8.05;;;3.60;;
21014;SDS011;19207;-23.482;-46.500;2023-02-15T00:17:17;5.97;;;3.75;;
21014;SDS011;19207;-23.482;-46.500;2023-02-15T00:20:04;6.20;;;3.78;;
21014;SDS011;19207;-23.482;-46.500;2023-02-15T00:22:50;7.90;;;3.70;;
21014;SDS011;19207;-23.482;-46.500;2023-02-15T00:25:37;4.40;;;3.37;;
21014;SDS011;19207;-23.482;-46.500;2023-02-15T00:28:23;8.63;;;3.55;;
21014;SDS011;19207;-23.482;-46.500;2023-02-15T00:31:11;11.02;;;3.47;;
21014;SDS011;19207;-23.482;-46.500;2023-02-15T00:34:04;5.70;;;3.75;;
21014;SDS011;19207;-23.482;-46.500;2023-02-15T00:36:51;5.22;;;3.50;;
21014;SDS011;19207;-23.482;-46.500;2023-02-15T00:39:38;5.30;;;3.40;;
21014;SDS011;19207;-23.482;-46.500;2023-02-15T00:42:25;8.75;;;4.10;;
21014;SDS011;19207;-23.482;-46.500;2023-02-15T00:45:12;11.27;;;3.80;;
21014;SDS011;19207;-23.482;-46.500;2023-02-15T00:47:59;6.07;;;4.00;;
21014;SDS011;19207;-23.482;-46.500;2023-02-15T00:50:50;5.57;;;3.80;;
21014;SDS011;19207;-23.482;-46.500;2023-02-15T00:53:38;11.75;;;3.97;;
21014;SDS011;19207;-23.482;-46.500;2023-02-15T00:56:25;4.10;;;3.60;;
21014;SDS011;19207;-23.482;-46.500;2023-02-15T00:59:13;4.43;;;3.58;;
21014;SDS011;19207;-23.482;-46.500;2023-02-15T01:01:59;4.05;;;3.35;;
21014;SDS011;19207;-23.482;-46.500;2023-02-15T01:04:46;8.27;;;3.47;;
21014;SDS011;19207;-23.482;-46.500;2023-02-15T01:07:33;5.40;;;3.87;;
21014;SDS011;19207;-23.482;-46.500;2023-02-15T01:10:20;9.73;;;3.40;;
21014;SDS011;19207;-23.482;-46.500;2023-02-15T01:13:07;4.22;;;3.15;;
21014;SDS011;19207;-23.482;-46.500;2023-02-15T01:15:54;5.75;;;3.62;;
21014;SDS011;19207;-23.482;-46.500;2023-02-15T01:18:41;5.60;;;3.60;;
21014;SDS011;19207;-23.482;-46.500;2023-02-15T01:21:28;5.32;;;3.62;;
21014;SDS011;19207;-23.482;-46.500;2023-02-15T01:24:15;6.60;;;3.50;;
21014;SDS011;19207;-23.482;-46.500;2023-02-15T01:27:01;4.60;;;3.50;;
21014;SDS011;19207;-23.482;-46.500;2023-02-15T01:29:48;5.40;;;3.75;;
21014;SDS011;19207;-23.482;-46.500;2023-02-15T01:32:34;7.00;;;3.65;;
21014;SDS011;19207;-23.482;-46.500;2023-02-15T01:35:21;5.60;;;3.87;;
21014;SDS011;19207;-23.482;-46.500;2023-02-15T01:38:08;4.57;;;3.50;;
21014;SDS011;19207;-23.482;-46.500;2023-02-15T01:40:55;6.62;;;3.37;;
21014;SDS011;19207;-23.482;-46.500;2023-02-15T01:44:02;4.53;;;3.15;;
21014;SDS011;19207;-23.482;-46.500;2023-02-15T01:46:51;8.40;;;3.40;;
21014;SDS011;19207;-23.482;-46.500;2023-02-15T01:49:38;7.43;;;3.22;;
21014;SDS011;19207;-23.482;-46.500;2023-02-15T01:52:26;4.30;;;3.20;;
21014;SDS011;19207;-23.482;-46.500;2023-02-15T01:55:13;3.85;;;3.10;;
21014;SDS011;19207;-23.482;-46.500;2023-02-15T01:58:00;3.50;;;3.20;;
21014;SDS011;19207;-23.482;-46.500;2023-02-15T02:00:47;4.95;;;3.20;;
21014;SDS011;19207;-23.482;-46.500;2023-02-15T02:03:43;4.25;;;3.17;;
21014;SDS011;19207;-23.482;-46.500;2023-02-15T02:06:33;5.78;;;3.45;;
21014;SDS011;19207;-23.482;-46.500;2023-02-15T02:09:21;5.93;;;3.60;;
21014;SDS011;19207;-23.482;-46.500;2023-02-15T02:12:08;5.18;;;3.30;;
21014;SDS011;19207;-23.482;-46.500;2023-02-15T02:14:56;3.78;;;3.10;;
21014;SDS011;19207;-23.482;-46.500;2023-02-15T02:17:47;8.48;;;3.28;;
21014;SDS011;19207;-23.482;-46.500;2023-02-15T02:20:45;6.47;;;3.53;;
21014;SDS011;19207;-23.482;-46.500;2023-02-15T02:26:29;6.30;;;3.50;;
21014;SDS011;19207;-23.482;-46.500;2023-02-15T02:35:48;5.32;;;3.42;;
21014;SDS011;19207;-23.482;-46.500;2023-02-15T02:38:52;5.50;;;3.65;;
21014;SDS011;19207;-23.482;-46.500;2023-02-15T02:41:44;6.57;;;3.80;;
21014;SDS011;19207;-23.482;-46.500;2023-02-15T02:44:39;5.80;;;3.28;;
21014;SDS011;19207;-23.482;-46.500;2023-02-15T02:50:22;7.53;;;3.33;;
21014;SDS011;19207;-23.482;-46.500;2023-02-15T02:53:09;4.93;;;3.40;;
21014;SDS011;19207;-23.482;-46.500;2023-02-15T02:55:59;4.50;;;3.25;;
21014;SDS011;19207;-23.482;-46.500;2023-02-15T02:58:48;6.03;;;3.22;;
21014;SDS011;19207;-23.482;-46.500;2023-02-15T03:01:45;5.00;;;3.40;;
21014;SDS011;19207;-23.482;-46.500;2023-02-15T03:04:37;4.15;;;2.97;;
21014;SDS011;19207;-23.482;-46.500;2023-02-15T03:07:26;5.03;;;3.30;;
21014;SDS011;19207;-23.482;-46.500;2023-02-15T03:10:15;6.05;;;3.20;;
21014;SDS011;19207;-23.482;-46.500;2023-02-15T03:13:02;7.03;;;3.12;;
21014;SDS011;19207;-23.482;-46.500;2023-02-15T03:15:50;4.43;;;2.97;;
21014;SDS011;19207;-23.482;-46.500;2023-02-15T03:19:01;4.72;;;3.15;;
21014;SDS011;19207;-23.482;-46.500;2023-02-15T03:21:51;6.07;;;3.00;;
21014;SDS011;19207;-23.482;-46.500;2023-02-15T03:25:02;4.78;;;3.20;;
21014;SDS011;19207;-23.482;-46.500;2023-02-15T03:27:54;12.40;;;3.42;;
21014;SDS011;19207;-23.482;-46.500;2023-02-15T03:30:44;3.80;;;3.03;;
21014;SDS011;19207;-23.482;-46.500;2023-02-15T03:33:32;4.22;;;3.08;;
21014;SDS011;19207;-23.482;-46.500;2023-02-15T03:41:58;3.53;;;2.53;;
21014;SDS011;19207;-23.482;-46.500;2023-02-15T03:44:56;5.15;;;2.37;;
21014;SDS011;19207;-23.482;-46.500;2023-02-15T03:47:46;2.60;;;2.40;;
21014;SDS011;19207;-23.482;-46.500;2023-02-15T03:50:35;2.67;;;2.40;;
21014;SDS011;19207;-23.482;-46.500;2023-02-15T03:53:42;2.62;;;2.20;;
21014;SDS011;19207;-23.482;-46.500;2023-02-15T03:56:30;2.20;;;2.00;;
21014;SDS011;19207;-23.482;-46.500;2023-02-15T03:59:17;2.30;;;2.10;;
21014;SDS011;19207;-23.482;-46.500;2023-02-15T04:02:24;3.05;;;2.10;;
21014;SDS011;19207;-23.482;-46.500;2023-02-15T04:05:16;2.53;;;2.10;;
21014;SDS011;19207;-23.482;-46.500;2023-02-15T04:08:04;2.28;;;2.03;;
21014;SDS011;19207;-23.482;-46.500;2023-02-15T04:10:52;2.20;;;2.00;;
21014;SDS011;19207;-23.482;-46.500;2023-02-15T04:13:41;2.40;;;2.20;;
21014;SDS011;19207;-23.482;-46.500;2023-02-15T04:16:29;2.33;;;2.12;;
21014;SDS011;19207;-23.482;-46.500;2023-02-15T04:19:16;4.70;;;2.20;;
21014;SDS011;19207;-23.482;-46.500;2023-02-15T04:22:25;2.42;;;2.22;;
21014;SDS011;19207;-23.482;-46.500;2023-02-15T04:25:31;2.62;;;2.42;;
21014;SDS011;19207;-23.482;-46.500;2023-02-15T04:28:17;4.57;;;2.30;;
21014;SDS011;19207;-23.482;-46.500;2023-02-15T04:31:05;2.60;;;2.40;;
21014;SDS011;19207;-23.482;-46.500;2023-02-15T04:33:52;2.55;;;2.33;;
21014;SDS011;19207;-23.482;-46.500;2023-02-15T04:36:40;4.12;;;2.70;;
21014;SDS011;19207;-23.482;-46.500;2023-02-15T04:39:27;2.90;;;2.70;;
21014;SDS011;19207;-23.482;-46.500;2023-02-15T04:42:14;3.60;;;2.80;;
21014;SDS011;19207;-23.482;-46.500;2023-02-15T04:45:01;3.65;;;2.87;;
21014;SDS011;19207;-23.482;-46.500;2023-02-15T04:47:48;5.90;;;2.72;;
21014;SDS011;19207;-23.482;-46.500;2023-02-15T04:50:36;3.45;;;2.95;;
21014;SDS011;19207;-23.482;-46.500;2023-02-15T04:53:23;4.87;;;3.25;;
21014;SDS011;19207;-23.482;-46.500;2023-02-15T04:56:10;5.30;;;3.35;;
21014;SDS011;19207;-23.482;-46.500;2023-02-15T04:58:57;3.60;;;3.30;;
21014;SDS011;19207;-23.482;-46.500;2023-02-15T05:01:45;4.12;;;3.35;;
21014;SDS011;19207;-23.482;-46.500;2023-02-15T05:04:32;3.60;;;3.30;;
21014;SDS011;19207;-23.482;-46.500;2023-02-15T05:07:19;6.43;;;3.40;;
21014;SDS011;19207;-23.482;-46.500;2023-02-15T05:10:06;4.00;;;3.60;;
21014;SDS011;19207;-23.482;-46.500;2023-02-15T05:12:53;4.93;;;3.67;;
21014;SDS011;19207;-23.482;-46.500;2023-02-15T05:15:40;5.85;;;3.70;;
21014;SDS011;19207;-23.482;-46.500;2023-02-15T05:18:28;3.65;;;3.33;;
21014;SDS011;19207;-23.482;-46.500;2023-02-15T05:21:15;5.70;;;4.40;;
21014;SDS011;19207;-23.482;-46.500;2023-02-15T05:24:02;11.07;;;7.07;;
21014;SDS011;19207;-23.482;-46.500;2023-02-15T05:27:10;29.52;;;13.13;;
21014;SDS011;19207;-23.482;-46.500;2023-02-15T05:30:16;17.05;;;9.77;;
21014;SDS011;19207;-23.482;-46.500;2023-02-15T05:33:03;27.42;;;16.45;;
21014;SDS011;19207;-23.482;-46.500;2023-02-15T05:35:50;59.40;;;29.83;;
21014;SDS011;19207;-23.482;-46.500;2023-02-15T05:38:37;68.32;;;32.65;;
21014;SDS011;19207;-23.482;-46.500;2023-02-15T05:41:24;42.30;;;20.95;;
21014;SDS011;19207;-23.482;-46.500;2023-02-15T05:44:15;38.08;;;20.12;;
21014;SDS011;19207;-23.482;-46.500;2023-02-15T05:47:02;20.58;;;10.23;;
21014;SDS011;19207;-23.482;-46.500;2023-02-15T05:49:50;6.37;;;4.32;;
21014;SDS011;19207;-23.482;-46.500;2023-02-15T05:52:38;10.30;;;4.00;;
21014;SDS011;19207;-23.482;-46.500;2023-02-15T05:55:25;9.88;;;4.00;;
21014;SDS011;19207;-23.482;-46.500;2023-02-15T05:58:12;8.48;;;4.40;;
21014;SDS011;19207;-23.482;-46.500;2023-02-15T06:00:59;6.90;;;4.40;;
21014;SDS011;19207;-23.482;-46.500;2023-02-15T06:03:46;8.05;;;4.47;;
21014;SDS011;19207;-23.482;-46.500;2023-02-15T06:06:35;5.75;;;3.95;;
21014;SDS011;19207;-23.482;-46.500;2023-02-15T06:09:22;6.10;;;3.80;;
21014;SDS011;19207;-23.482;-46.500;2023-02-15T06:12:09;5.43;;;3.80;;
21014;SDS011;19207;-23.482;-46.500;2023-02-15T06:14:57;6.18;;;3.45;;
21014;SDS011;19207;-23.482;-46.500;2023-02-15T06:17:45;6.50;;;3.60;;
21014;SDS011;19207;-23.482;-46.500;2023-02-15T06:20:32;6.93;;;3.30;;
21014;SDS011;19207;-23.482;-46.500;2023-02-15T06:23:19;4.43;;;3.22;;
21014;SDS011;19207;-23.482;-46.500;2023-02-15T06:26:08;6.30;;;3.40;;
21014;SDS011;19207;-23.482;-46.500;2023-02-15T06:28:55;3.55;;;2.92;;
21014;SDS011;19207;-23.482;-46.500;2023-02-15T06:31:42;6.43;;;3.22;;
21014;SDS011;19207;-23.482;-46.500;2023-02-15T06:34:29;7.10;;;3.72;;
21014;SDS011;19207;-23.482;-46.500;2023-02-15T06:37:17;4.78;;;3.40;;
21014;SDS011;19207;-23.482;-46.500;2023-02-15T06:40:07;5.35;;;3.70;;
21014;SDS011;19207;-23.482;-46.500;2023-02-15T06:42:54;4.43;;;3.70;;
21014;SDS011;19207;-23.482;-46.500;2023-02-15T06:45:41;5.05;;;4.18;;
21014;SDS011;19207;-23.482;-46.500;2023-02-15T06:48:28;8.15;;;4.35;;
21014;SDS011;19207;-23.482;-46.500;2023-02-15T06:51:15;8.75;;;4.20;;
21014;SDS011;19207;-23.482;-46.500;2023-02-15T06:54:03;4.62;;;3.70;;
21014;SDS011;19207;-23.482;-46.500;2023-02-15T06:56:50;6.93;;;3.70;;
21014;SDS011;19207;-23.482;-46.500;2023-02-15T06:59:37;7.57;;;4.07;;
21014;SDS011;19207;-23.482;-46.500;2023-02-15T07:02:26;6.97;;;4.03;;
21014;SDS011;19207;-23.482;-46.500;2023-02-15T07:05:13;7.95;;;5.05;;
21014;SDS011;19207;-23.482;-46.500;2023-02-15T07:08:00;6.57;;;4.97;;
21014;SDS011;19207;-23.482;-46.500;2023-02-15T07:10:48;11.07;;;4.95;;
21014;SDS011;19207;-23.482;-46.500;2023-02-15T07:13:35;12.85;;;5.03;;
21014;SDS011;19207;-23.482;-46.500;2023-02-15T07:16:23;11.57;;;5.00;;
21014;SDS011;19207;-23.482;-46.500;2023-02-15T07:19:10;11.32;;;5.00;;
21014;SDS011;19207;-23.482;-46.500;2023-02-15T07:21:57;9.63;;;4.55;;
21014;SDS011;19207;-23.482;-46.500;2023-02-15T07:24:44;8.25;;;5.45;;
21014;SDS011;19207;-23.482;-46.500;2023-02-15T07:27:32;10.48;;;5.60;;
21014;SDS011;19207;-23.482;-46.500;2023-02-15T07:30:19;7.50;;;5.00;;
21014;SDS011;19207;-23.482;-46.500;2023-02-15T07:33:06;6.75;;;4.93;;
21014;SDS011;19207;-23.482;-46.500;2023-02-15T07:36:09;6.80;;;4.60;;
21014;SDS011;19207;-23.482;-46.500;2023-02-15T07:38:57;9.30;;;4.90;;
21014;SDS011;19207;-23.482;-46.500;2023-02-15T07:41:44;7.30;;;4.90;;
21014;SDS011;19207;-23.482;-46.500;2023-02-15T07:44:31;6.45;;;4.30;;
21014;SDS011;19207;-23.482;-46.500;2023-02-15T07:47:18;6.60;;;4.43;;
21014;SDS011;19207;-23.482;-46.500;2023-02-15T07:50:05;6.18;;;4.40;;
21014;SDS011;19207;-23.482;-46.500;2023-02-15T07:52:53;8.02;;;4.50;;
21014;SDS011;19207;-23.482;-46.500;2023-02-15T07:55:41;10.63;;;4.40;;
21014;SDS011;19207;-23.482;-46.500;2023-02-15T07:58:28;4.68;;;4.10;;
21014;SDS011;19207;-23.482;-46.500;2023-02-15T08:01:34;10.77;;;4.97;;
21014;SDS011;19207;-23.482;-46.500;2023-02-15T08:04:23;7.87;;;5.22;;
21014;SDS011;19207;-23.482;-46.500;2023-02-15T08:07:10;11.05;;;5.30;;
21014;SDS011;19207;-23.482;-46.500;2023-02-15T08:09:57;6.37;;;4.72;;
21014;SDS011;19207;-23.482;-46.500;2023-02-15T08:12:47;7.53;;;4.95;;
21014;SDS011;19207;-23.482;-46.500;2023-02-15T08:15:34;5.95;;;4.40;;
21014;SDS011;19207;-23.482;-46.500;2023-02-15T08:18:21;6.68;;;4.50;;
21014;SDS011;19207;-23.482;-46.500;2023-02-15T08:21:08;5.18;;;4.30;;
21014;SDS011;19207;-23.482;-46.500;2023-02-15T08:23:56;9.23;;;4.00;;
21014;SDS011;19207;-23.482;-46.500;2023-02-15T08:26:43;4.60;;;4.20;;
21014;SDS011;19207;-23.482;-46.500;2023-02-15T08:29:32;6.75;;;3.22;;
21014;SDS011;19207;-23.482;-46.500;2023-02-15T08:32:19;7.60;;;3.67;;
21014;SDS011;19207;-23.482;-46.500;2023-02-15T08:35:07;6.97;;;3.20;;
21014;SDS011;19207;-23.482;-46.500;2023-02-15T08:37:54;5.00;;;3.20;;
21014;SDS011;19207;-23.482;-46.500;2023-02-15T08:40:41;5.72;;;3.25;;
21014;SDS011;19207;-23.482;-46.500;2023-02-15T08:43:28;13.20;;;3.92;;
21014;SDS011;19207;-23.482;-46.500;2023-02-15T08:46:15;5.60;;;3.10;;
21014;SDS011;19207;-23.482;-46.500;2023-02-15T08:49:02;4.47;;;3.03;;
21014;SDS011;19207;-23.482;-46.500;2023-02-15T08:51:49;4.40;;;3.10;;
21014;SDS011;19207;-23.482;-46.500;2023-02-15T08:54:37;8.50;;;3.45;;
21014;SDS011;19207;-23.482;-46.500;2023-02-15T08:57:25;5.10;;;2.97;;
21014;SDS011;19207;-23.482;-46.500;2023-02-15T09:00:12;5.05;;;3.17;;
21014;SDS011;19207;-23.482;-46.500;2023-02-15T09:02:59;6.35;;;3.80;;
21014;SDS011;19207;-23.482;-46.500;2023-02-15T09:05:46;6.95;;;4.10;;
21014;SDS011;19207;-23.482;-46.500;2023-02-15T09:08:34;6.57;;;3.97;;
21014;SDS011;19207;-23.482;-46.500;2023-02-15T09:11:22;11.48;;;3.80;;
21014;SDS011;19207;-23.482;-46.500;2023-02-15T09:14:11;6.82;;;3.78;;
21014;SDS011;19207;-23.482;-46.500;2023-02-15T09:17:01;9.98;;;4.50;;
21014;SDS011;19207;-23.482;-46.500;2023-02-15T09:19:49;11.43;;;5.12;;
21014;SDS011;19207;-23.482;-46.500;2023-02-15T09:22:36;9.52;;;4.25;;
21014;SDS011;19207;-23.482;-46.500;2023-02-15T09:25:23;8.57;;;4.18;;
21014;SDS011;19207;-23.482;-46.500;2023-02-15T09:28:11;12.25;;;4.40;;
21014;SDS011;19207;-23.482;-46.500;2023-02-15T09:31:05;6.30;;;3.50;;
21014;SDS011;19207;-23.482;-46.500;2023-02-15T09:33:52;6.30;;;3.50;;
21014;SDS011;19207;-23.482;-46.500;2023-02-15T09:36:39;16.73;;;3.90;;
21014;SDS011;19207;-23.482;-46.500;2023-02-15T09:39:27;13.82;;;4.03;;
21014;SDS011;19207;-23.482;-46.500;2023-02-15T09:42:31;6.03;;;3.70;;
21014;SDS011;19207;-23.482;-46.500;2023-02-15T09:45:28;9.07;;;3.65;;
21014;SDS011;19207;-23.482;-46.500;2023-02-15T09:51:19;5.37;;;3.95;;
21014;SDS011;19207;-23.482;-46.500;2023-02-15T09:57:23;5.90;;;3.75;;
21014;SDS011;19207;-23.482;-46.500;2023-02-15T10:03:19;9.38;;;4.07;;
21014;SDS011;19207;-23.482;-46.500;2023-02-15T10:15:16;8.88;;;3.97;;
21014;SDS011;19207;-23.482;-46.500;2023-02-15T10:18:15;6.07;;;3.80;;
21014;SDS011;19207;-23.482;-46.500;2023-02-15T10:26:46;6.40;;;3.90;;
21014;SDS011;19207;-23.482;-46.500;2023-02-15T10:29:37;11.60;;;4.90;;
21014;SDS011;19207;-23.482;-46.500;2023-02-15T10:32:28;9.07;;;4.70;;
21014;SDS011;19207;-23.482;-46.500;2023-02-15T10:38:31;10.55;;;4.45;;
21014;SDS011;19207;-23.482;-46.500;2023-02-15T10:44:33;7.75;;;4.60;;
21014;SDS011;19207;-23.482;-46.500;2023-02-15T10:50:30;12.90;;;4.22;;
21014;SDS011;19207;-23.482;-46.500;2023-02-15T10:56:37;10.50;;;4.05;;
21014;SDS011;19207;-23.482;-46.500;2023-02-15T11:08:43;5.65;;;3.92;;
21014;SDS011;19207;-23.482;-46.500;2023-02-15T11:11:32;5.85;;;4.12;;
21014;SDS011;19207;-23.482;-46.500;2023-02-15T11:17:11;11.85;;;7.37;;
21014;SDS011;19207;-23.482;-46.500;2023-02-15T11:20:15;5.60;;;3.50;;
21014;SDS011;19207;-23.482;-46.500;2023-02-15T11:23:07;6.35;;;3.72;;
21014;SDS011;19207;-23.482;-46.500;2023-02-15T11:26:02;5.75;;;3.55;;
21014;SDS011;19207;-23.482;-46.500;2023-02-15T11:28:51;7.03;;;3.62;;
21014;SDS011;19207;-23.482;-46.500;2023-02-15T11:31:46;5.12;;;3.60;;
21014;SDS011;19207;-23.482;-46.500;2023-02-15T11:34:39;6.95;;;3.78;;
21014;SDS011;19207;-23.482;-46.500;2023-02-15T11:37:46;4.00;;;3.60;;
21014;SDS011;19207;-23.482;-46.500;2023-02-15T11:43:33;4.28;;;3.35;;
21014;SDS011;19207;-23.482;-46.500;2023-02-15T11:46:22;4.95;;;3.40;;
21014;SDS011;19207;-23.482;-46.500;2023-02-15T11:49:15;8.02;;;6.93;;
21014;SDS011;19207;-23.482;-46.500;2023-02-15T11:52:08;4.40;;;3.20;;
21014;SDS011;19207;-23.482;-46.500;2023-02-15T11:54:57;12.98;;;6.90;;
21014;SDS011;19207;-23.482;-46.500;2023-02-15T11:57:44;11.38;;;10.23;;
21014;SDS011;19207;-23.482;-46.500;2023-02-15T12:03:49;6.30;;;2.95;;
21014;SDS011;19207;-23.482;-46.500;2023-02-15T12:06:57;4.45;;;3.15;;
21014;SDS011;19207;-23.482;-46.500;2023-02-15T12:10:10;3.05;;;2.83;;
21014;SDS011;19207;-23.482;-46.500;2023-02-15T12:13:16;4.05;;;3.10;;
21014;SDS011;19207;-23.482;-46.500;2023-02-15T12:16:06;5.80;;;3.62;;
21014;SDS011;19207;-23.482;-46.500;2023-02-15T12:18:55;5.07;;;3.40;;
21014;SDS011;19207;-23.482;-46.500;2023-02-15T12:21:42;5.78;;;3.60;;
21014;SDS011;19207;-23.482;-46.500;2023-02-15T12:24:32;4.05;;;3.70;;
21014;SDS011;19207;-23.482;-46.500;2023-02-15T12:27:25;8.55;;;3.65;;
21014;SDS011;19207;-23.482;-46.500;2023-02-15T12:44:56;8.27;;;7.18;;
21014;SDS011;19207;-23.482;-46.500;2023-02-15T12:47:43;5.05;;;3.80;;
21014;SDS011;19207;-23.482;-46.500;2023-02-15T12:50:30;7.57;;;6.87;;
21014;SDS011;19207;-23.482;-46.500;2023-02-15T12:53:51;5.78;;;3.83;;
21014;SDS011;19207;-23.482;-46.500;2023-02-15T12:56:31;4.50;;;4.10;;
21014;SDS011;19207;-23.482;-46.500;2023-02-15T12:59:18;5.12;;;3.67;;
21014;SDS011;19207;-23.482;-46.500;2023-02-15T13:02:06;9.73;;;8.93;;
21014;SDS011;19207;-23.482;-46.500;2023-02-15T13:05:05;5.10;;;3.65;;
21014;SDS011;19207;-23.482;-46.500;2023-02-15T13:07:54;11.05;;;10.13;;
21014;SDS011;19207;-23.482;-46.500;2023-02-15T13:10:52;7.37;;;6.65;;
21014;SDS011;19207;-23.482;-46.500;2023-02-15T13:16:47;6.57;;;4.35;;
21014;SDS011;19207;-23.482;-46.500;2023-02-15T13:19:52;3.62;;;3.30;;
21014;SDS011;19207;-23.482;-46.500;2023-02-15T13:22:41;5.47;;;3.50;;
21014;SDS011;19207;-23.482;-46.500;2023-02-15T13:25:32;5.40;;;3.37;;
21014;SDS011;19207;-23.482;-46.500;2023-02-15T13:28:20;7.05;;;3.50;;
21014;SDS011;19207;-23.482;-46.500;2023-02-15T13:31:15;3.67;;;3.30;;
21014;SDS011;19207;-23.482;-46.500;2023-02-15T13:36:52;10.05;;;9.25;;
21014;SDS011;19207;-23.482;-46.500;2023-02-15T13:43:11;3.90;;;3.50;;
21014;SDS011;19207;-23.482;-46.500;2023-02-15T13:49:13;4.07;;;3.40;;
21014;SDS011;19207;-23.482;-46.500;2023-02-15T14:03:35;12.18;;;3.70;;
21014;SDS011;19207;-23.482;-46.500;2023-02-15T14:06:39;4.62;;;3.80;;
21014;SDS011;19207;-23.482;-46.500;2023-02-15T14:09:33;5.00;;;4.00;;
21014;SDS011;19207;-23.482;-46.500;2023-02-15T14:21:15;4.32;;;3.92;;
21014;SDS011;19207;-23.482;-46.500;2023-02-15T14:27:24;4.65;;;4.00;;
21014;SDS011;19207;-23.482;-46.500;2023-02-15T14:30:20;4.32;;;3.92;;
21014;SDS011;19207;-23.482;-46.500;2023-02-15T14:33:08;5.47;;;4.93;;
21014;SDS011;19207;-23.482;-46.500;2023-02-15T14:35:55;8.35;;;4.00;;
21014;SDS011;19207;-23.482;-46.500;2023-02-15T14:45:09;4.53;;;3.92;;
21014;SDS011;19207;-23.482;-46.500;2023-02-15T14:51:10;4.28;;;3.87;;
21014;SDS011;19207;-23.482;-46.500;2023-02-15T14:53:57;4.80;;;4.05;;
21014;SDS011;19207;-23.482;-46.500;2023-02-15T14:56:44;4.93;;;3.72;;
21014;SDS011;19207;-23.482;-46.500;2023-02-15T15:07:59;7.93;;;3.50;;
21014;SDS011;19207;-23.482;-46.500;2023-02-15T15:10:46;4.15;;;3.45;;
21014;SDS011;19207;-23.482;-46.500;2023-02-15T15:19:56;4.47;;;3.40;;
21014;SDS011;19207;-23.482;-46.500;2023-02-15T15:22:21;4.62;;;3.33;;
21014;SDS011;19207;-23.482;-46.500;2023-02-15T15:28:00;4.00;;;3.60;;
21014;SDS011;19207;-23.482;-46.500;2023-02-15T15:30:48;3.92;;;3.47;;
21014;SDS011;19207;-23.482;-46.500;2023-02-15T15:42:43;4.50;;;3.70;;
21014;SDS011;19207;-23.482;-46.500;2023-02-15T15:48:35;6.22;;;3.55;;
21014;SDS011;19207;-23.482;-46.500;2023-02-15T15:51:32;5.30;;;3.70;;
21014;SDS011;19207;-23.482;-46.500;2023-02-15T15:54:22;7.43;;;3.40;;
21014;SDS011;19207;-23.482;-46.500;2023-02-15T15:57:15;5.18;;;3.70;;
21014;SDS011;19207;-23.482;-46.500;2023-02-15T16:00:03;4.00;;;3.65;;
21014;SDS011;19207;-23.482;-46.500;2023-02-15T16:02:57;6.90;;;3.70;;
21014;SDS011;19207;-23.482;-46.500;2023-02-15T16:05:49;4.80;;;3.80;;
21014;SDS011;19207;-23.482;-46.500;2023-02-15T16:08:40;4.62;;;4.10;;
21014;SDS011;19207;-23.482;-46.500;2023-02-15T16:11:29;6.18;;;4.37;;
21014;SDS011;19207;-23.482;-46.500;2023-02-15T16:14:38;5.95;;;4.37;;
21014;SDS011;19207;-23.482;-46.500;2023-02-15T16:17:26;8.45;;;4.53;;
21014;SDS011;19207;-23.482;-46.500;2023-02-15T16:20:18;4.72;;;4.22;;
21014;SDS011;19207;-23.482;-46.500;2023-02-15T16:29:38;6.78;;;4.40;;
21014;SDS011;19207;-23.482;-46.500;2023-02-15T16:32:26;7.30;;;4.37;;
21014;SDS011;19207;-23.482;-46.500;2023-02-15T16:35:17;5.10;;;4.60;;
21014;SDS011;19207;-23.482;-46.500;2023-02-15T16:38:04;5.25;;;4.40;;
21014;SDS011;19207;-23.482;-46.500;2023-02-15T16:40:51;8.88;;;4.70;;
21014;SDS011;19207;-23.482;-46.500;2023-02-15T16:43:40;7.20;;;4.87;;
21014;SDS011;19207;-23.482;-46.500;2023-02-15T16:46:30;11.82;;;4.70;;
21014;SDS011;19207;-23.482;-46.500;2023-02-15T16:49:24;4.62;;;4.22;;
21014;SDS011;19207;-23.482;-46.500;2023-02-15T16:52:14;10.73;;;4.87;;
21014;SDS011;19207;-23.482;-46.500;2023-02-15T16:55:03;8.80;;;4.70;;
21014;SDS011;19207;-23.482;-46.500;2023-02-15T16:57:51;8.60;;;4.75;;
21014;SDS011;19207;-23.482;-46.500;2023-02-15T17:00:41;6.68;;;4.20;;
21014;SDS011;19207;-23.482;-46.500;2023-02-15T17:03:28;4.87;;;4.37;;
21014;SDS011;19207;-23.482;-46.500;2023-02-15T17:06:19;13.25;;;11.88;;
21014;SDS011;19207;-23.482;-46.500;2023-02-15T17:09:13;6.37;;;4.50;;
21014;SDS011;19207;-23.482;-46.500;2023-02-15T17:12:01;5.80;;;4.80;;
21014;SDS011;19207;-23.482;-46.500;2023-02-15T17:14:48;4.90;;;4.20;;
21014;SDS011;19207;-23.482;-46.500;2023-02-15T17:17:41;6.65;;;4.55;;
21014;SDS011;19207;-23.482;-46.500;2023-02-15T17:20:27;7.40;;;4.65;;
21014;SDS011;19207;-23.482;-46.500;2023-02-15T17:23:33;10.40;;;4.80;;
21014;SDS011;19207;-23.482;-46.500;2023-02-15T17:26:22;9.38;;;5.00;;
21014;SDS011;19207;-23.482;-46.500;2023-02-15T17:32:16;9.73;;;5.00;;
21014;SDS011;19207;-23.482;-46.500;2023-02-15T17:38:01;8.23;;;4.80;;
21014;SDS011;19207;-23.482;-46.500;2023-02-15T17:40:47;7.50;;;5.18;;
21014;SDS011;19207;-23.482;-46.500;2023-02-15T17:43:34;5.20;;;4.62;;
21014;SDS011;19207;-23.482;-46.500;2023-02-15T17:46:22;5.95;;;5.03;;
21014;SDS011;19207;-23.482;-46.500;2023-02-15T17:49:13;6.32;;;5.60;;
21014;SDS011;19207;-23.482;-46.500;2023-02-15T17:52:04;4.60;;;4.20;;
21014;SDS011;19207;-23.482;-46.500;2023-02-15T17:54:52;10.50;;;4.20;;
21014;SDS011;19207;-23.482;-46.500;2023-02-15T17:57:58;4.50;;;3.97;;
21014;SDS011;19207;-23.482;-46.500;2023-02-15T18:00:49;4.40;;;4.00;;
21014;SDS011;19207;-23.482;-46.500;2023-02-15T18:03:54;5.75;;;4.47;;
21014;SDS011;19207;-23.482;-46.500;2023-02-15T18:06:59;6.32;;;4.65;;
21014;SDS011;19207;-23.482;-46.500;2023-02-15T18:10:15;15.00;;;5.68;;
21014;SDS011;19207;-23.482;-46.500;2023-02-15T18:13:20;8.45;;;4.80;;
21014;SDS011;19207;-23.482;-46.500;2023-02-15T18:16:10;11.25;;;5.05;;
21014;SDS011;19207;-23.482;-46.500;2023-02-15T18:18:57;7.93;;;5.53;;
21014;SDS011;19207;-23.482;-46.500;2023-02-15T18:21:44;5.28;;;4.07;;
21014;SDS011;19207;-23.482;-46.500;2023-02-15T18:24:31;8.23;;;4.05;;
21014;SDS011;19207;-23.482;-46.500;2023-02-15T18:27:18;8.60;;;4.37;;
21014;SDS011;19207;-23.482;-46.500;2023-02-15T18:30:06;10.15;;;6.40;;
21014;SDS011;19207;-23.482;-46.500;2023-02-15T18:32:56;13.10;;;4.75;;
21014;SDS011;19207;-23.482;-46.500;2023-02-15T18:35:44;13.23;;;5.50;;
21014;SDS011;19207;-23.482;-46.500;2023-02-15T18:41:30;8.32;;;3.40;;
21014;SDS011;19207;-23.482;-46.500;2023-02-15T18:44:17;6.22;;;2.90;;
21014;SDS011;19207;-23.482;-46.500;2023-02-15T18:47:04;10.30;;;3.58;;
21014;SDS011;19207;-23.482;-46.500;2023-02-15T18:49:51;10.18;;;3.30;;
21014;SDS011;19207;-23.482;-46.500;2023-02-15T18:52:39;3.62;;;2.80;;
21014;SDS011;19207;-23.482;-46.500;2023-02-15T18:55:26;5.68;;;3.00;;
21014;SDS011;19207;-23.482;-46.500;2023-02-15T18:58:19;7.97;;;2.97;;
21014;SDS011;19207;-23.482;-46.500;2023-02-15T19:01:18;9.95;;;3.80;;
21014;SDS011;19207;-23.482;-46.500;2023-02-15T19:04:04;10.27;;;3.58;;
21014;SDS011;19207;-23.482;-46.500;2023-02-15T19:06:51;5.25;;;3.70;;
21014;SDS011;19207;-23.482;-46.500;2023-02-15T19:09:38;9.70;;;3.83;;
21014;SDS011;19207;-23.482;-46.500;2023-02-15T19:12:28;11.02;;;4.40;;
21014;SDS011;19207;-23.482;-46.500;2023-02-15T19:15:16;10.20;;;4.25;;